Jericho, Jordan

6:21 AM EEST on July 28, 2016 (GMT +0300)
jordan | | Change Station

Elev -780 ft 31.81 °N, 35.64 °E | Updated 12 minutes ago

Partly Cloudy
Partly Cloudy
80.2 °F
Feels Like 84 °F
N
0.0
Wind Variable Wind from NNW

Today
High -- | Low -- °F
--% Chance of Precip.
Yesterday
High -- | Low -- °F
Precip. -- in
Pressure 29.74 in
Visibility 6.2 miles
Clouds Few 2500 ft
Heat Index 84 °F
Dew Point 70 °F
Humidity 72%
Rainfall 0.00 in
Snow Depth Not available.
5:51 AM 7:37 PM
Last Quarter, 37% visible
METAR LLBG 280250Z VRB03KT 9999 FEW025 25/21 Q1007 NOSIG
Pressure 29.74 in
Visibility 6.2 miles
Clouds Few 2500 ft
Heat Index 84 °F
Dew Point 70 °F
Humidity 72%
Rainfall 0.00 in
Snow Depth Not available.
5:51 AM 7:37 PM
Last Quarter, 37% visible
METAR LLBG 280250Z VRB03KT 9999 FEW025 25/21 Q1007 NOSIG

10-Day Weather Forecast

No radar image for this location.
×

Almanac

Astronomy

Jul. 28, 2016 Rise Set
Actual Time
Civil Twilight
Nautical Twilight
Astronomical Twilight
Moon
Length of Visible Light
Length of Day
Tomorrow will be .
, % of the Moon is Illuminated

Today's Extremes

Country Highs Country Lows

Community

WunderPhotos

Upload Photos

1,928,037 photos uploaded!

WunderBlog® & News

Nearby

Air Quality

  Air Quality AQ Index Pollutant
Not available.

Snow Depth

Station Depth Elevation

Earthquake Activity

City Distance Mag. Time & Date
Minimum magnitude displayed is 2.5.

Coastal Water Temperatures

Place Temperature

Stations

Nearby Weather Stations

Station Location Temp. Windchill Dew Point Humidity Wind Precip. Elev Updated Type